Time;durP1;ratioP1;P1;durP2;ratioP2;P2;SDS_P1;SDS_P2;PMS_P1;PMS_P2;Temp;Humidity;BMP_temperature;BMP_pressure;BME280_temperature;BME280_humidity;BME280_pressure;Samples;Min_cycle;Max_cycle;Signal;HPM_P1;HPM_P2
2021/04/15 00:01:20;;;;;;;;;;;;;;;8.09;100.00;100940.53;1804641;79;20215;-75
2021/04/15 00:03:48;;;;;;;;;;;;;;;8.08;100.00;100940.98;1804754;79;21342;-75
2021/04/15 00:06:17;;;;;;;;;;;;;;;8.08;100.00;100946.61;1804342;79;20240;-74
2021/04/15 00:08:47;;;;;;;;;;;;;;;8.08;100.00;100945.31;1804584;79;20138;-74
2021/04/15 00:11:18;;;;;;;;;;;;;;;8.07;100.00;100952.71;1804381;79;20220;-77
2021/04/15 00:13:48;;;;;;;;;;;;;;;8.08;100.00;100951.33;1804500;79;20225;-75
2021/04/15 00:16:17;;;;;;;;;;;;;;;8.07;100.00;100945.80;1803491;79;20249;-79
2021/04/15 00:18:46;;;;;;;;;;;;;;;8.10;100.00;100952.55;1804538;79;20161;-75
2021/04/15 00:21:14;;;;;;;;;;;;;;;8.11;100.00;100952.91;1804983;79;20252;-75
2021/04/15 00:23:43;;;;;;;;;;;;;;;8.12;100.00;100952.84;1805743;79;20137;-76
2021/04/15 00:26:13;;;;;;;;;;;;;;;8.10;100.00;100950.81;1805967;79;20193;-75
2021/04/15 00:28:42;;;;;;;;;;;;;;;8.10;100.00;100949.97;1805493;79;20966;-75
2021/04/15 00:31:11;;;;;;;;;;;;;;;8.06;100.00;100960.92;1805906;79;20180;-77
2021/04/15 00:33:40;;;;;;;;;;;;;;;8.05;100.00;100962.27;1807203;79;20468;-74
2021/04/15 00:36:09;;;;;;;;;;;;;;;8.02;100.00;100968.44;1807351;79;20225;-74
2021/04/15 00:38:39;;;;;;;;;;;;;;;7.99;100.00;100959.55;1805999;79;20228;-76
2021/04/15 00:41:09;;;;;;;;;;;;;;;7.94;100.00;100962.35;1804480;79;21123;-77
2021/04/15 00:43:40;;;;;;;;;;;;;;;7.91;100.00;100971.55;1804533;79;20312;-78
2021/04/15 00:46:38;;;;;;;;;;;;;;;7.87;100.00;100970.05;1804699;79;20172;-79
2021/04/15 00:49:07;;;;;;;;;;;;;;;7.86;100.00;100965.79;1804967;79;20153;-78
2021/04/15 00:51:39;;;;;;;;;;;;;;;7.82;100.00;100975.05;1781607;79;20233;-76
2021/04/15 00:54:10;;;;;;;;;;;;;;;7.76;100.00;100975.35;1804634;79;20558;-74
2021/04/15 00:56:38;;;;;;;;;;;;;;;7.73;100.00;100975.05;1803354;79;20161;-79
2021/04/15 00:59:07;;;;;;;;;;;;;;;7.73;100.00;100975.51;1804405;79;20121;-77
2021/04/15 01:01:36;;;;;;;;;;;;;;;7.71;100.00;100977.34;1804369;79;20216;-74
2021/04/15 01:04:05;;;;;;;;;;;;;;;7.72;100.00;100979.02;1804536;79;20189;-74
2021/04/15 01:06:33;;;;;;;;;;;;;;;7.73;100.00;100978.09;1804710;79;20971;-77
2021/04/15 01:09:02;;;;;;;;;;;;;;;7.72;100.00;100981.12;1804443;79;20570;-74
2021/04/15 01:11:44;;;;;;;;;;;;;;;7.71;100.00;100977.34;1804532;79;20510;-76
2021/04/15 01:14:33;;;;;;;;;;;;;;;7.70;100.00;100982.95;1804902;79;20137;-76
2021/04/15 01:17:30;;;;;;;;;;;;;;;7.68;100.00;100982.21;1804515;79;20256;-78
2021/04/15 01:20:28;;;;;;;;;;;;;;;7.68;100.00;100991.25;1804409;79;21183;-80
2021/04/15 01:23:15;;;;;;;;;;;;;;;7.62;100.00;100988.97;1804274;79;20229;-76
2021/04/15 01:26:06;;;;;;;;;;;;;;;7.54;100.00;100996.69;1804634;79;20492;-80
2021/04/15 01:29:15;;;;;;;;;;;;;;;7.45;100.00;101001.39;1804533;79;20141;-79
2021/04/15 01:31:57;;;;;;;;;;;;;;;7.32;100.00;100991.27;1804451;79;20157;-75
2021/04/15 01:34:47;;;;;;;;;;;;;;;7.25;100.00;101005.81;1804516;79;21335;-76
2021/04/15 01:37:25;;;;;;;;;;;;;;;7.20;100.00;101000.88;1804315;79;20172;-76
2021/04/15 01:39:59;;;;;;;;;;;;;;;7.18;100.00;100999.28;1804443;79;20134;-74
2021/04/15 01:42:30;;;;;;;;;;;;;;;7.16;100.00;101005.79;1804391;79;20276;-76
2021/04/15 01:45:01;;;;;;;;;;;;;;;7.10;100.00;101012.53;1804394;79;20244;-77
2021/04/15 01:47:35;;;;;;;;;;;;;;;7.05;100.00;100995.59;1807013;79;21187;-73
2021/04/15 01:50:06;;;;;;;;;;;;;;;6.99;100.00;101003.14;1796726;79;20150;-77
2021/04/15 01:52:35;;;;;;;;;;;;;;;6.91;100.00;101002.67;1803416;79;20216;-71
2021/04/15 01:55:07;;;;;;;;;;;;;;;6.86;100.00;101013.66;1802259;79;20224;-76
2021/04/15 01:57:38;;;;;;;;;;;;;;;6.81;100.00;101012.56;1802198;79;20239;-72
2021/04/15 02:00:15;;;;;;;;;;;;;;;6.77;100.00;101016.17;1802070;79;21638;-74
2021/04/15 02:02:47;;;;;;;;;;;;;;;6.75;100.00;101012.00;1802147;79;20228;-74
2021/04/15 02:05:25;;;;;;;;;;;;;;;6.73;100.00;101022.36;1801966;79;20224;-74
2021/04/15 02:07:57;;;;;;;;;;;;;;;6.72;100.00;101024.58;1802062;78;20129;-73
2021/04/15 02:10:26;;;;;;;;;;;;;;;6.69;100.00;101026.45;1802139;79;20213;-75
2021/04/15 02:12:56;;;;;;;;;;;;;;;6.68;100.00;101029.93;1802118;79;21171;-76
2021/04/15 02:15:27;;;;;;;;;;;;;;;6.68;100.00;101029.93;1802615;79;20134;-75
2021/04/15 02:17:58;;;;;;;;;;;;;;;6.65;100.00;101027.48;1802609;78;20161;-76
2021/04/15 02:20:27;;;;;;;;;;;;;;;6.65;100.00;101032.64;1802142;79;20154;-75
2021/04/15 02:23:02;;;;;;;;;;;;;;;6.60;100.00;101030.28;1802343;78;20487;-74
2021/04/15 02:25:40;;;;;;;;;;;;;;;6.56;100.00;101035.19;1802354;79;22127;-74
2021/04/15 02:28:12;;;;;;;;;;;;;;;6.54;100.00;101040.84;1802092;78;20216;-73
2021/04/15 02:30:45;;;;;;;;;;;;;;;6.55;100.00;101042.97;1802089;78;20208;-74
2021/04/15 02:33:22;;;;;;;;;;;;;;;6.55;100.00;101050.26;1802131;79;20220;-72
2021/04/15 02:35:58;;;;;;;;;;;;;;;6.58;100.00;101052.70;1801970;79;20483;-73
2021/04/15 02:38:45;;;;;;;;;;;;;;;6.59;100.00;101053.09;1802166;79;21436;-75
2021/04/15 02:41:16;;;;;;;;;;;;;;;6.61;100.00;101051.28;1802060;79;20586;-72
2021/04/15 02:43:51;;;;;;;;;;;;;;;6.64;100.00;101058.03;1802182;78;20503;-73
2021/04/15 02:46:35;;;;;;;;;;;;;;;6.67;100.00;101065.67;1807109;79;20498;-74
2021/04/15 02:49:04;;;;;;;;;;;;;;;6.67;100.00;101063.09;1802255;79;20271;-72
2021/04/15 02:51:40;;;;;;;;;;;;;;;6.69;100.00;101058.69;1802062;79;21176;-73
2021/04/15 02:54:14;;;;;;;;;;;;;;;6.72;100.00;101069.72;1801890;79;20236;-79
2021/04/15 02:56:51;;;;;;;;;;;;;;;6.76;100.00;101062.69;1802021;78;20223;-74
2021/04/15 02:59:30;;;;;;;;;;;;;;;6.80;100.00;101067.63;1804186;79;20712;-73
2021/04/15 03:02:10;;;;;;;;;;;;;;;6.81;100.00;101069.31;1804193;79;20511;-75
2021/04/15 03:04:39;;;;;;;;;;;;;;;6.79;100.00;101077.58;1807485;79;22101;-74
2021/04/15 03:07:07;;;;;;;;;;;;;;;6.77;100.00;101074.66;1804600;79;20469;-76
2021/04/15 03:09:34;;;;;;;;;;;;;;;6.74;100.00;101078.22;1802667;79;20224;-77
2021/04/15 03:12:16;;;;;;;;;;;;;;;6.70;100.00;101082.30;1802246;78;20149;-78
2021/04/15 03:14:53;;;;;;;;;;;;;;;6.67;100.00;101081.95;1802257;79;20233;-72
2021/04/15 03:17:24;;;;;;;;;;;;;;;6.66;100.00;101092.35;1802266;78;21196;-75
2021/04/15 03:19:58;;;;;;;;;;;;;;;6.63;100.00;101086.04;1802174;79;20691;-75
2021/04/15 03:22:35;;;;;;;;;;;;;;;6.62;100.00;101085.64;1802085;79;20292;-75
2021/04/15 03:25:03;;;;;;;;;;;;;;;6.60;100.00;101094.75;1802267;79;20903;-75
2021/04/15 03:27:46;;;;;;;;;;;;;;;6.59;100.00;101098.67;1802139;79;20228;-75
2021/04/15 03:30:20;;;;;;;;;;;;;;;6.57;100.00;101097.46;1802158;79;22090;-76
2021/04/15 03:33:11;;;;;;;;;;;;;;;6.57;100.00;101097.91;1802052;79;20138;-76
2021/04/15 03:35:47;;;;;;;;;;;;;;;6.57;100.00;101107.78;1802207;79;20232;-75
2021/04/15 03:38:32;;;;;;;;;;;;;;;6.58;100.00;101106.01;1801759;79;20539;-73
2021/04/15 03:41:10;;;;;;;;;;;;;;;6.58;100.00;101112.01;1802015;79;20241;-79
2021/04/15 03:43:43;;;;;;;;;;;;;;;6.57;100.00;101109.52;1801655;79;21440;-77
2021/04/15 03:46:18;;;;;;;;;;;;;;;6.55;100.00;101118.59;1797737;79;20598;-71
2021/04/15 03:48:53;;;;;;;;;;;;;;;6.57;100.00;101114.67;1799836;79;20244;-76
2021/04/15 03:51:25;;;;;;;;;;;;;;;6.59;100.00;101128.32;1801612;79;20276;-77
2021/04/15 03:53:59;;;;;;;;;;;;;;;6.60;100.00;101128.72;1802177;79;20153;-73
2021/04/15 03:56:42;;;;;;;;;;;;;;;6.60;100.00;101126.98;1802374;78;22140;-73
2021/04/15 03:59:14;;;;;;;;;;;;;;;6.62;100.00;101129.48;1802512;79;20169;-73
2021/04/15 04:01:44;;;;;;;;;;;;;;;6.63;100.00;101133.30;1802273;79;20202;-76
2021/04/15 04:04:18;;;;;;;;;;;;;;;6.64;100.00;101137.98;1802138;79;20292;-75
2021/04/15 04:06:46;;;;;;;;;;;;;;;6.64;100.00;101134.11;1795543;79;20288;-78
2021/04/15 04:09:30;;;;;;;;;;;;;;;6.64;100.00;101133.66;1802123;79;21174;-79
2021/04/15 04:12:00;;;;;;;;;;;;;;;6.64;100.00;101144.42;1802160;79;20222;-73
2021/04/15 04:14:33;;;;;;;;;;;;;;;6.66;100.00;101146.51;1802317;78;20669;-77
2021/04/15 04:17:06;;;;;;;;;;;;;;;6.65;100.00;101140.51;1802110;79;20268;-75
2021/04/15 04:19:53;;;;;;;;;;;;;;;6.63;100.00;101146.64;1802466;79;20243;-77
2021/04/15 04:22:30;;;;;;;;;;;;;;;6.56;100.00;101148.63;1802182;79;21182;-76
2021/04/15 04:25:01;;;;;;;;;;;;;;;6.55;100.00;101153.84;1802182;79;20169;-76
2021/04/15 04:27:37;;;;;;;;;;;;;;;6.53;100.00;101159.08;1802350;79;20126;-81
2021/04/15 04:30:13;;;;;;;;;;;;;;;6.53;100.00;101159.08;1802189;79;20229;-73
2021/04/15 04:32:41;;;;;;;;;;;;;;;6.53;100.00;101157.79;1802022;79;20232;-75
2021/04/15 04:35:12;;;;;;;;;;;;;;;6.54;99.98;101155.58;1802171;79;21183;-75
2021/04/15 04:37:42;;;;;;;;;;;;;;;6.56;99.95;101150.38;1800528;79;20264;-78
2021/04/15 04:40:21;;;;;;;;;;;;;;;6.59;100.00;101157.98;1802362;79;20505;-78
2021/04/15 04:42:56;;;;;;;;;;;;;;;6.62;100.00;101159.13;1802254;78;20133;-77
2021/04/15 04:45:26;;;;;;;;;;;;;;;6.66;99.98;101159.41;1802871;79;20161;-76
2021/04/15 04:47:57;;;;;;;;;;;;;;;6.68;99.71;101161.45;1803071;79;22526;-75
2021/04/15 04:50:37;;;;;;;;;;;;;;;6.67;99.88;101161.90;1802237;79;20924;-76
2021/04/15 04:53:07;;;;;;;;;;;;;;;6.68;99.80;101167.45;1802247;79;20208;-78
2021/04/15 04:55:39;;;;;;;;;;;;;;;6.68;99.22;101171.77;1802250;79;20214;-72
2021/04/15 04:58:13;;;;;;;;;;;;;;;6.65;98.92;101170.16;1802274;79;20503;-73
2021/04/15 05:00:44;;;;;;;;;;;;;;;6.67;99.14;101178.66;1802265;79;21654;-75
2021/04/15 05:03:13;;;;;;;;;;;;;;;6.68;99.44;101172.61;1802080;79;20261;-73
2021/04/15 05:05:41;;;;;;;;;;;;;;;6.69;99.32;101178.17;1802105;79;20558;-75
2021/04/15 05:08:20;;;;;;;;;;;;;;;6.70;98.71;101177.72;1802182;79;20593;-76
2021/04/15 05:10:52;;;;;;;;;;;;;;;6.75;98.52;101187.38;1802297;79;20213;-78
2021/04/15 05:13:26;;;;;;;;;;;;;;;6.76;97.46;101192.49;1807822;78;20184;-74
2021/04/15 05:15:55;;;;;;;;;;;;;;;6.81;97.09;101185.83;1802293;79;20125;-77
2021/04/15 05:18:23;;;;;;;;;;;;;;;6.86;96.51;101187.30;1802123;79;20502;-75
2021/04/15 05:20:54;;;;;;;;;;;;;;;6.91;96.44;101185.84;1802163;79;20307;-77
2021/04/15 05:23:37;;;;;;;;;;;;;;;6.96;96.08;101192.07;1802177;79;20317;-78
2021/04/15 05:26:25;;;;;;;;;;;;;;;7.02;96.02;101195.71;1801712;79;21146;-75
2021/04/15 05:28:58;;;;;;;;;;;;;;;7.07;94.62;101193.76;1802083;79;20593;-75
2021/04/15 05:31:27;;;;;;;;;;;;;;;7.09;94.59;101195.36;1778072;79;20561;-74
2021/04/15 05:33:57;;;;;;;;;;;;;;;7.11;93.93;101202.61;1803389;79;20300;-78
2021/04/15 05:36:34;;;;;;;;;;;;;;;7.12;93.37;101195.67;1778096;79;20237;-77
2021/04/15 05:39:03;;;;;;;;;;;;;;;7.14;93.74;101203.77;1802255;79;21202;-74
2021/04/15 05:41:40;;;;;;;;;;;;;;;7.16;92.83;101204.97;1802317;79;20126;-74
2021/04/15 05:44:16;;;;;;;;;;;;;;;7.18;93.12;101210.44;1802314;79;20110;-73
2021/04/15 05:46:46;;;;;;;;;;;;;;;7.23;92.89;101208.52;1802309;79;20788;-74
2021/04/15 05:49:26;;;;;;;;;;;;;;;7.31;92.74;101206.87;1802200;79;20542;-76
2021/04/15 05:52:06;;;;;;;;;;;;;;;7.40;92.11;101211.19;1802185;79;20590;-76
2021/04/15 05:54:34;;;;;;;;;;;;;;;7.48;91.46;101208.27;1801983;79;20453;-77
2021/04/15 05:57:11;;;;;;;;;;;;;;;7.53;90.43;101210.19;1807578;79;20240;-73
2021/04/15 06:00:02;;;;;;;;;;;;;;;7.55;90.41;101199.35;1812768;78;20219;-76
2021/04/15 06:02:53;;;;;;;;;;;;;;;7.62;90.88;101202.05;1810600;78;20284;-75
2021/04/15 06:05:41;;;;;;;;;;;;;;;7.65;89.09;101208.37;1810279;78;21172;-78
2021/04/15 06:08:09;;;;;;;;;;;;;;;7.66;89.33;101195.01;1781711;80;20231;-81
2021/04/15 06:10:38;;;;;;;;;;;;;;;7.66;88.63;101193.23;1781906;80;20218;-77
2021/04/15 06:13:19;;;;;;;;;;;;;;;7.64;88.71;101205.84;1781946;80;20199;-76
2021/04/15 06:15:56;;;;;;;;;;;;;;;7.63;88.48;101206.73;1782278;80;20493;-78
2021/04/15 06:18:45;;;;;;;;;;;;;;;7.58;88.13;101205.67;1782030;80;21202;-74
2021/04/15 06:21:28;;;;;;;;;;;;;;;7.60;88.89;101202.55;1782951;80;20513;-75
2021/04/15 06:24:05;;;;;;;;;;;;;;;7.68;89.44;101204.36;1782060;80;20302;-76
2021/04/15 06:26:43;;;;;;;;;;;;;;;7.83;88.48;101210.11;1781721;80;20238;-77
2021/04/15 06:29:27;;;;;;;;;;;;;;;8.01;87.83;101210.17;1781731;80;20151;-73
2021/04/15 06:31:56;;;;;;;;;;;;;;;8.23;88.02;101197.43;1777389;80;22113;-82
2021/04/15 06:34:27;;;;;;;;;;;;;;;8.42;85.73;101205.20;1781733;80;20139;-77
2021/04/15 06:37:05;;;;;;;;;;;;;;;8.50;84.90;101217.30;1781631;79;20493;-76
2021/04/15 06:39:38;;;;;;;;;;;;;;;8.58;85.33;101208.72;1781789;80;20251;-78
2021/04/15 06:42:26;;;;;;;;;;;;;;;8.65;84.38;101217.83;1781799;80;20236;-77
2021/04/15 06:45:21;;;;;;;;;;;;;;;8.73;83.78;101217.02;1781870;80;21380;-78
2021/04/15 06:47:55;;;;;;;;;;;;;;;8.70;82.94;101217.61;1781355;80;20502;-76
2021/04/15 06:50:56;;;;;;;;;;;;;;;8.70;84.38;101220.20;1756294;80;20584;-76
2021/04/15 06:53:52;;;;;;;;;;;;;;;8.76;85.33;101220.73;1782666;79;38658;-73
2021/04/15 06:56:28;;;;;;;;;;;;;;;8.97;85.64;101215.77;1787059;79;20225;-75
2021/04/15 06:59:23;;;;;;;;;;;;;;;9.09;82.33;101225.98;1786606;79;21208;-75
2021/04/15 07:02:11;;;;;;;;;;;;;;;9.03;82.53;101219.80;1850717;77;20226;-76
2021/04/15 07:04:45;;;;;;;;;;;;;;;9.10;80.60;101227.64;1844810;77;20123;-73
2021/04/15 07:07:26;;;;;;;;;;;;;;;9.09;80.54;101231.62;1843934;77;20215;-77
2021/04/15 07:10:03;;;;;;;;;;;;;;;9.03;80.20;101230.15;1831567;77;20240;-76
2021/04/15 07:12:47;;;;;;;;;;;;;;;9.07;81.05;101239.90;1817519;78;21208;-75
2021/04/15 07:15:36;;;;;;;;;;;;;;;9.17;80.45;101241.11;1802414;79;20767;-76
2021/04/15 07:18:16;;;;;;;;;;;;;;;9.27;75.87;101234.10;1804882;78;20526;-73
2021/04/15 07:21:03;;;;;;;;;;;;;;;9.35;76.72;101248.77;1803339;78;20209;-82
2021/04/15 07:23:54;;;;;;;;;;;;;;;9.45;75.13;101253.86;1802988;79;20232;-81
2021/04/15 07:27:02;;;;;;;;;;;;;;;9.52;74.29;101263.45;1801745;79;22098;-75
2021/04/15 07:30:00;;;;;;;;;;;;;;;9.51;73.69;101262.61;1802474;79;20197;-79
2021/04/15 07:32:31;;;;;;;;;;;;;;;9.55;75.02;101258.95;1802481;79;20200;-78
2021/04/15 07:35:12;;;;;;;;;;;;;;;9.65;72.33;101258.46;1802468;79;20217;-78
2021/04/15 07:38:01;;;;;;;;;;;;;;;9.70;72.93;101262.47;1802431;78;20296;-75
2021/04/15 07:40:46;;;;;;;;;;;;;;;9.78;73.78;101265.52;1803422;78;21369;-75
2021/04/15 07:43:20;;;;;;;;;;;;;;;9.94;73.37;101259.05;1802775;78;20223;-74
2021/04/15 07:46:07;;;;;;;;;;;;;;;10.09;72.96;101264.70;1802714;79;20158;-74
2021/04/15 07:49:15;;;;;;;;;;;;;;;10.24;72.14;101254.00;1802795;78;20236;-75
2021/04/15 07:52:07;;;;;;;;;;;;;;;10.30;71.49;101259.69;1784404;78;20231;-78
2021/04/15 07:54:54;;;;;;;;;;;;;;;10.45;69.60;101256.69;1783874;79;21114;-74
2021/04/15 07:57:48;;;;;;;;;;;;;;;10.46;70.32;101254.48;1783813;80;20273;-76
2021/04/15 08:00:32;;;;;;;;;;;;;;;10.59;70.71;101258.05;1784193;80;20222;-80
2021/04/15 08:03:28;;;;;;;;;;;;;;;10.80;69.72;101260.72;1783712;80;20226;-81
2021/04/15 08:06:08;;;;;;;;;;;;;;;10.91;67.17;101279.09;1783758;80;20151;-78
2021/04/15 08:08:56;;;;;;;;;;;;;;;10.87;66.30;101269.83;1782842;79;22169;-80
2021/04/15 08:11:49;;;;;;;;;;;;;;;10.86;66.25;101272.05;1782944;79;20306;-73
2021/04/15 08:14:38;;;;;;;;;;;;;;;10.78;66.35;101294.19;1784078;80;20234;-77
2021/04/15 08:17:19;;;;;;;;;;;;;;;10.56;67.06;101278.99;1784173;80;20234;-76
2021/04/15 08:20:10;;;;;;;;;;;;;;;10.47;67.86;101279.02;1784146;80;20139;-72
2021/04/15 08:23:19;;;;;;;;;;;;;;;10.59;68.80;101284.02;1783550;79;20560;-79
2021/04/15 08:26:11;;;;;;;;;;;;;;;10.78;68.40;101288.54;1783851;79;20147;-80
2021/04/15 08:28:52;;;;;;;;;;;;;;;10.92;67.56;101291.16;1784194;80;20222;-74
2021/04/15 08:31:46;;;;;;;;;;;;;;;11.08;66.13;101289.36;1783756;80;20185;-82
2021/04/15 08:34:21;;;;;;;;;;;;;;;11.20;65.85;101290.39;1780753;79;20258;-81
2021/04/15 08:37:17;;;;;;;;;;;;;;;11.37;64.35;101285.05;1784180;80;20773;-79
2021/04/15 08:40:00;;;;;;;;;;;;;;;11.33;64.43;101289.20;1784034;80;20498;-76
2021/04/15 08:43:03;;;;;;;;;;;;;;;11.32;64.43;101290.16;1784073;80;20230;-81
2021/04/15 08:45:41;;;;;;;;;;;;;;;11.41;64.63;101287.84;1784249;80;20591;-77
2021/04/15 08:48:38;;;;;;;;;;;;;;;11.67;63.05;101281.93;1784182;80;20218;-76
2021/04/15 08:51:13;;;;;;;;;;;;;;;11.71;62.66;101286.97;1753966;79;21206;-81
2021/04/15 08:54:00;;;;;;;;;;;;;;;11.87;62.72;101283.81;1847924;77;20111;-78
2021/04/15 08:56:37;;;;;;;;;;;;;;;11.93;61.27;101286.88;1838386;77;20603;-82
2021/04/15 08:59:14;;;;;;;;;;;;;;;11.77;62.00;101289.20;1838656;78;20207;-75
2021/04/15 09:02:07;;;;;;;;;;;;;;;11.66;61.28;101292.41;1839145;78;20135;-78
2021/04/15 09:04:54;;;;;;;;;;;;;;;11.55;61.85;101289.63;1817484;77;21383;-75
2021/04/15 09:08:01;;;;;;;;;;;;;;;11.48;62.58;101294.82;1839268;77;20493;-76
2021/04/15 09:10:49;;;;;;;;;;;;;;;11.49;63.10;101288.21;1839174;77;20147;-80
2021/04/15 09:13:31;;;;;;;;;;;;;;;11.60;63.50;101291.02;1846713;77;20217;-76
2021/04/15 09:16:06;;;;;;;;;;;;;;;11.73;62.29;101285.95;1846352;77;20246;-75
2021/04/15 09:18:51;;;;;;;;;;;;;;;11.61;62.28;101293.97;1843428;77;20139;-77
2021/04/15 09:21:27;;;;;;;;;;;;;;;11.47;62.36;101302.23;1839088;78;20257;-71
2021/04/15 09:24:20;;;;;;;;;;;;;;;11.34;63.10;101285.23;1810059;77;20131;-75
2021/04/15 09:27:15;;;;;;;;;;;;;;;11.29;62.79;101292.94;1838041;77;20309;-78
2021/04/15 09:29:48;;;;;;;;;;;;;;;11.36;63.64;101292.47;1838953;78;20273;-80
2021/04/15 09:32:19;;;;;;;;;;;;;;;11.54;62.32;101291.39;1838932;77;21185;-77
2021/04/15 09:35:09;;;;;;;;;;;;;;;11.59;61.81;101291.94;1839126;78;20155;-75
2021/04/15 09:38:03;;;;;;;;;;;;;;;11.71;61.32;101291.69;1839034;77;20244;-76
2021/04/15 09:40:54;;;;;;;;;;;;;;;11.88;63.29;101292.80;1839073;77;20489;-75
2021/04/15 09:43:26;;;;;;;;;;;;;;;12.00;59.62;101298.55;1838891;77;20505;-79
2021/04/15 09:46:12;;;;;;;;;;;;;;;11.96;57.60;101266.33;1839210;78;21776;-75
2021/04/15 09:49:18;;;;;;;;;;;;;;;11.92;57.91;101290.39;1839315;78;20441;-78
2021/04/15 09:52:23;;;;;;;;;;;;;;;11.86;57.81;101278.23;1839050;78;20489;-74
2021/04/15 09:55:01;;;;;;;;;;;;;;;11.59;58.61;101295.84;1839248;78;20224;-78
2021/04/15 09:57:38;;;;;;;;;;;;;;;11.57;59.51;101289.06;1838689;78;20222;-75
2021/04/15 10:00:28;;;;;;;;;;;;;;;11.62;59.43;101296.95;1838866;78;21179;-73
2021/04/15 10:03:10;;;;;;;;;;;;;;;11.66;58.92;101288.50;1838795;77;20194;-75
2021/04/15 10:06:05;;;;;;;;;;;;;;;11.53;57.78;101291.01;1839084;78;20139;-77
2021/04/15 10:08:50;;;;;;;;;;;;;;;12.36;56.05;101291.52;1839040;78;20848;-74
2021/04/15 10:11:38;;;;;;;;;;;;;;;12.44;54.91;101294.95;1839124;78;20289;-77
2021/04/15 10:14:28;;;;;;;;;;;;;;;12.54;54.67;101288.22;1838586;77;20127;-78
2021/04/15 10:17:24;;;;;;;;;;;;;;;13.29;52.42;101291.95;1838416;77;20174;-80
2021/04/15 10:20:03;;;;;;;;;;;;;;;14.77;49.58;101284.05;1839300;78;20150;-75
2021/04/15 10:22:52;;;;;;;;;;;;;;;15.44;44.62;101292.90;1837900;78;20335;-79
2021/04/15 10:25:28;;;;;;;;;;;;;;;15.23;46.13;101290.58;1823462;78;20697;-83
2021/04/15 10:28:18;;;;;;;;;;;;;;;15.16;45.81;101286.29;1787924;78;21192;-79
2021/04/15 10:31:08;;;;;;;;;;;;;;;14.90;47.17;101279.55;1838988;77;20119;-75
2021/04/15 10:34:11;;;;;;;;;;;;;;;14.88;45.99;101282.77;1838967;77;20297;-80
2021/04/15 10:36:57;;;;;;;;;;;;;;;14.58;47.58;101275.39;1838903;77;20833;-79
2021/04/15 10:39:39;;;;;;;;;;;;;;;14.61;48.72;101277.80;1839096;76;20246;-75
2021/04/15 10:42:37;;;;;;;;;;;;;;;14.43;46.90;101275.67;1839317;78;22271;-81
2021/04/15 10:45:14;;;;;;;;;;;;;;;14.37;47.90;101270.89;1839132;77;20210;-76
2021/04/15 10:48:17;;;;;;;;;;;;;;;13.82;51.61;101293.49;1839053;78;20206;-75
2021/04/15 10:51:01;;;;;;;;;;;;;;;13.35;52.45;101285.86;1838852;78;20276;-79
2021/04/15 10:53:52;;;;;;;;;;;;;;;12.99;53.63;101292.18;1838857;77;20230;-75
2021/04/15 10:56:29;;;;;;;;;;;;;;;12.88;54.42;101288.16;1839118;78;21081;-73
2021/04/15 10:59:05;;;;;;;;;;;;;;;12.70;54.74;101289.72;1838857;78;20229;-74
2021/04/15 11:01:46;;;;;;;;;;;;;;;12.43;55.50;101292.80;1838601;78;20302;-73
2021/04/15 11:04:22;;;;;;;;;;;;;;;12.18;55.73;101295.28;1838488;77;20261;-78
2021/04/15 11:07:00;;;;;;;;;;;;;;;11.93;56.88;101305.08;1838857;77;20242;-74
2021/04/15 11:09:37;;;;;;;;;;;;;;;11.76;57.81;101313.06;1838700;78;20214;-76
2021/04/15 11:12:17;;;;;;;;;;;;;;;11.65;58.26;101310.22;1838968;76;20139;-78
2021/04/15 11:14:49;;;;;;;;;;;;;;;11.55;58.96;101303.44;1839046;76;20202;-73
2021/04/15 11:17:33;;;;;;;;;;;;;;;11.50;58.75;101303.34;1840218;77;20250;-76
2021/04/15 11:20:11;;;;;;;;;;;;;;;11.52;59.45;101306.22;1856237;76;20264;-75
2021/04/15 11:22:42;;;;;;;;;;;;;;;11.63;60.03;101305.13;1839041;78;20870;-76
2021/04/15 11:25:23;;;;;;;;;;;;;;;11.73;58.61;101302.84;1839093;78;20631;-74
2021/04/15 11:27:52;;;;;;;;;;;;;;;11.90;58.67;101299.23;1839228;78;20218;-75
2021/04/15 11:30:41;;;;;;;;;;;;;;;12.07;56.92;101293.80;1839351;78;20489;-75
2021/04/15 11:33:14;;;;;;;;;;;;;;;12.11;57.38;101291.38;1843553;76;20280;-75
2021/04/15 11:35:42;;;;;;;;;;;;;;;12.26;56.28;101295.63;1835459;77;21181;-74
2021/04/15 11:38:18;;;;;;;;;;;;;;;12.50;55.48;101297.16;1838641;78;20222;-79
2021/04/15 11:40:48;;;;;;;;;;;;;;;12.78;53.95;101290.99;1838928;78;20127;-77
2021/04/15 11:43:25;;;;;;;;;;;;;;;12.79;54.20;101290.91;1839062;77;20135;-75
2021/04/15 11:45:58;;;;;;;;;;;;;;;12.90;55.20;101290.19;1839014;78;20238;-76
2021/04/15 11:48:28;;;;;;;;;;;;;;;13.06;54.58;101295.59;1835400;78;21194;-77
2021/04/15 11:51:15;;;;;;;;;;;;;;;13.35;53.91;101296.29;1838508;78;20261;-77
2021/04/15 11:53:48;;;;;;;;;;;;;;;13.58;53.42;101287.75;1836431;76;20133;-75
2021/04/15 11:56:33;;;;;;;;;;;;;;;13.69;53.24;101283.91;1838981;77;20700;-77
2021/04/15 11:59:18;;;;;;;;;;;;;;;13.95;51.57;101280.80;1838954;76;20228;-78
2021/04/15 12:01:46;;;;;;;;;;;;;;;14.39;51.00;101280.28;1838896;78;22113;-77
2021/04/15 12:04:25;;;;;;;;;;;;;;;14.50;49.41;101279.52;1837799;78;20314;-77
2021/04/15 12:06:56;;;;;;;;;;;;;;;14.46;49.38;101284.59;1837681;76;20547;-78
2021/04/15 12:09:31;;;;;;;;;;;;;;;14.41;49.63;101274.49;1839004;78;20287;-81
2021/04/15 12:12:20;;;;;;;;;;;;;;;14.79;50.49;101274.30;1838856;78;20260;-77
2021/04/15 12:14:51;;;;;;;;;;;;;;;15.16;48.34;101269.77;1838878;76;21345;-78
2021/04/15 12:17:29;;;;;;;;;;;;;;;15.36;47.51;101275.16;1814125;78;20891;-75
2021/04/15 12:20:05;;;;;;;;;;;;;;;15.55;47.14;101268.55;1814245;78;20196;-77
2021/04/15 12:22:40;;;;;;;;;;;;;;;15.41;47.44;101269.59;1838925;78;20216;-78
2021/04/15 12:25:27;;;;;;;;;;;;;;;15.41;48.14;101271.37;1838864;76;20220;-78
2021/04/15 12:28:03;;;;;;;;;;;;;;;15.42;47.05;101267.79;1824228;78;21374;-76
2021/04/15 12:30:38;;;;;;;;;;;;;;;15.48;46.76;101258.19;1970890;72;20162;-75
2021/04/15 12:33:15;;;;;;;;;;;;;;;15.28;47.03;101257.91;1936425;74;20133;-78
2021/04/15 12:36:01;;;;;;;;;;;;;;;15.27;47.37;101255.42;1935921;74;21407;-76
2021/04/15 12:38:34;;;;;;;;;;;;;;;15.22;46.26;101247.91;1936144;74;20235;-76
2021/04/15 12:41:08;;;;;;;;;;;;;;;15.08;46.23;101254.67;1936421;74;20218;-76
2021/04/15 12:43:38;;;;;;;;;;;;;;;14.77;45.93;101254.00;1936407;74;20479;-78
2021/04/15 12:46:19;;;;;;;;;;;;;;;14.45;47.23;101248.52;1880486;74;20134;-77
2021/04/15 12:48:54;;;;;;;;;;;;;;;14.38;46.75;101252.52;1938149;74;21389;-77
2021/04/15 12:51:26;;;;;;;;;;;;;;;14.33;48.03;101244.17;1937358;74;20125;-77
2021/04/15 12:53:55;;;;;;;;;;;;;;;14.47;47.87;101245.32;1937023;74;20178;-76
2021/04/15 12:56:27;;;;;;;;;;;;;;;14.84;49.11;101246.04;1936358;74;20180;-75
2021/04/15 12:58:55;;;;;;;;;;;;;;;15.48;47.44;101245.95;1936256;74;20212;-76
2021/04/15 13:01:23;;;;;;;;;;;;;;;16.60;45.81;101244.83;1935505;74;22089;-78
2021/04/15 13:03:52;;;;;;;;;;;;;;;17.68;42.86;101244.87;1935300;74;20226;-78
2021/04/15 13:06:21;;;;;;;;;;;;;;;17.65;41.91;101253.01;1936799;74;20188;-76
2021/04/15 13:08:52;;;;;;;;;;;;;;;16.98;42.53;101251.30;1935658;74;20295;-73
2021/04/15 13:11:24;;;;;;;;;;;;;;;16.25;43.38;101249.44;1936193;74;20262;-79
2021/04/15 13:13:55;;;;;;;;;;;;;;;15.52;44.83;101251.78;1936150;74;22187;-75
2021/04/15 13:16:38;;;;;;;;;;;;;;;14.82;46.68;101255.31;1935970;74;20177;-79
2021/04/15 13:19:20;;;;;;;;;;;;;;;14.58;47.47;101258.91;1936111;74;20129;-74
2021/04/15 13:22:01;;;;;;;;;;;;;;;14.32;47.78;101250.33;1936431;74;20149;-78
2021/04/15 13:24:50;;;;;;;;;;;;;;;14.07;48.36;101247.31;1935377;74;20149;-77
2021/04/15 13:27:38;;;;;;;;;;;;;;;14.10;48.96;101251.00;1936442;74;20224;-76
2021/04/15 13:30:10;;;;;;;;;;;;;;;15.05;47.40;101249.68;1936261;74;20122;-74
2021/04/15 13:32:56;;;;;;;;;;;;;;;15.87;45.10;101248.56;1936281;74;20558;-77
2021/04/15 13:35:39;;;;;;;;;;;;;;;15.75;44.91;101245.13;1919008;74;20475;-76
2021/04/15 13:41:26;;;;;;;;;;;;;;;14.67;45.27;101254.31;1936084;74;21164;-76